Time;durP1;ratioP1;P1;durP2;ratioP2;P2;SDS_P1;SDS_P2;PMS_P1;PMS_P2;Temp;Humidity;BMP_temperature;BMP_pressure;BME280_temperature;BME280_humidity;BME280_pressure;Samples;Min_cycle;Max_cycle;Signal;HPM_P1;HPM_P2
2022/01/16 00:00:40;;;;;;;13.67;8.37;;;;;;;3.06;49.14;95397.78;5038776;28;20187;-78
2022/01/16 00:05:55;;;;;;;14.57;9.68;;;;;;;3.43;48.90;95394.66;5048606;28;20214;-79
2022/01/16 00:08:21;;;;;;;13.38;9.55;;;;;;;3.65;49.32;95386.66;5030494;28;20202;-79
2022/01/16 00:10:47;;;;;;;12.82;7.60;;;;;;;3.83;48.34;95376.50;5048264;28;20184;-79
2022/01/16 00:13:13;;;;;;;10.47;7.90;;;;;;;3.45;49.61;95393.59;5048506;28;20270;-78
2022/01/16 00:15:38;;;;;;;12.17;8.47;;;;;;;3.69;49.76;95400.97;5048323;28;20183;-79
2022/01/16 00:20:31;;;;;;;9.40;8.17;;;;;;;3.49;51.45;95430.34;5047826;28;20195;-78
2022/01/16 00:22:58;;;;;;;11.23;8.00;;;;;;;3.37;52.04;95437.38;5041964;28;20254;-79
2022/01/16 00:25:24;;;;;;;9.87;7.40;;;;;;;3.26;52.83;95463.31;5028711;28;20465;-79
2022/01/16 00:27:50;;;;;;;9.40;6.00;;;;;;;3.36;52.23;95471.13;5030251;28;20438;-79
2022/01/16 00:30:17;;;;;;;16.67;8.75;;;;;;;3.55;52.82;95502.28;5030114;28;20867;-78
2022/01/16 00:32:43;;;;;;;10.93;8.77;;;;;;;3.64;52.41;95519.63;5024230;28;20244;-78
2022/01/16 00:35:11;;;;;;;13.80;9.50;;;;;;;3.79;52.12;95403.59;5027221;28;20211;-78
2022/01/16 00:37:38;;;;;;;13.73;10.00;;;;;;;3.82;52.45;95374.03;5013947;28;20426;-78
2022/01/16 00:40:05;;;;;;;13.52;9.35;;;;;;;3.72;52.67;95451.69;5047544;28;20418;-78
2022/01/16 00:42:31;;;;;;;11.20;9.33;;;;;;;3.95;52.72;95407.44;5044420;28;20555;-78
2022/01/16 00:44:56;;;;;;;12.43;9.07;;;;;;;3.80;53.08;95304.28;5009830;28;20463;-78
2022/01/16 00:47:22;;;;;;;14.13;10.00;;;;;;;3.78;52.99;95357.16;5029186;28;20188;-78
2022/01/16 00:49:47;;;;;;;10.97;9.47;;;;;;;3.77;53.06;95329.63;5047157;28;20211;-79
2022/01/16 00:52:13;;;;;;;13.03;9.47;;;;;;;3.74;53.39;95239.28;5063190;28;20562;-78
2022/01/16 00:54:38;;;;;;;4.70;4.17;;;;;;;3.48;54.20;95282.06;5046887;28;20181;-78
2022/01/16 00:57:05;;;;;;;13.67;9.50;;;;;;;3.49;54.60;95275.94;5041631;28;20215;-78
2022/01/16 00:59:30;;;;;;;12.70;9.43;;;;;;;3.53;54.85;95281.66;5034844;28;20185;-79
2022/01/16 01:01:56;;;;;;;10.37;8.77;;;;;;;3.64;54.30;95320.34;5047468;28;20426;-78
2022/01/16 01:04:22;;;;;;;10.70;9.43;;;;;;;3.83;54.07;95360.13;5046874;28;20472;-79
2022/01/16 01:06:49;;;;;;;12.87;9.17;;;;;;;3.64;54.08;95366.94;5009249;28;20233;-79
2022/01/16 01:09:16;;;;;;;13.53;10.23;;;;;;;3.87;54.01;95341.63;5034388;28;20179;-79
2022/01/16 01:11:44;;;;;;;10.03;8.03;;;;;;;3.21;56.00;95347.34;5035939;28;20446;-80
2022/01/16 01:14:40;;;;;;;8.48;6.82;;;;;;;3.38;55.39;95382.13;5044804;28;20410;-79
2022/01/16 01:17:08;;;;;;;11.00;6.93;;;;;;;3.21;55.71;95347.34;5021618;28;20263;-79
2022/01/16 01:19:34;;;;;;;9.90;8.57;;;;;;;3.02;56.13;95347.28;5027204;28;20411;-79
2022/01/16 01:22:05;;;;;;;8.82;7.95;;;;;;;3.60;55.07;95357.78;5027453;28;20423;-79
2022/01/16 01:24:33;;;;;;;9.65;8.65;;;;;;;3.53;55.20;95338.59;5034517;28;20701;-78
2022/01/16 01:29:37;;;;;;;9.60;7.47;;;;;;;3.54;55.20;95363.50;5046529;28;20170;-79
2022/01/16 01:32:03;;;;;;;7.50;6.80;;;;;;;3.64;55.02;95354.00;5046344;28;20340;-78
2022/01/16 01:34:28;;;;;;;10.07;7.65;;;;;;;3.87;53.64;95343.38;5016129;28;20461;-79
2022/01/16 01:36:54;;;;;;;9.20;7.03;;;;;;;3.59;54.07;95371.69;5009039;28;20192;-79
2022/01/16 01:39:22;;;;;;;7.50;6.67;;;;;;;3.24;55.13;95357.41;5008939;28;20215;-78
2022/01/16 01:41:52;;;;;;;10.95;8.57;;;;;;;3.32;54.83;95377.47;5044736;28;20908;-79
2022/01/16 01:52:30;;;;;;;11.98;6.18;;;;;;;3.11;55.52;95411.13;5046584;28;20476;-79
2022/01/16 01:54:56;;;;;;;7.83;6.13;;;;;;;3.37;54.49;95395.19;5046170;28;20631;-79
2022/01/16 01:57:22;;;;;;;7.80;6.50;;;;;;;3.43;54.66;95402.41;5064233;28;20191;-79
2022/01/16 01:59:48;;;;;;;7.35;6.60;;;;;;;3.55;53.98;95416.06;5066329;28;20179;-78
2022/01/16 02:02:13;;;;;;;8.30;6.63;;;;;;;3.14;55.47;95390.19;5048610;28;20182;-79
2022/01/16 02:04:39;;;;;;;8.07;6.40;;;;;;;3.39;54.83;95388.91;5033655;28;20257;-79
2022/01/16 02:07:04;;;;;;;10.67;7.90;;;;;;;3.33;54.40;95395.44;5046126;28;20190;-79
2022/01/16 02:09:31;;;;;;;9.00;6.53;;;;;;;2.98;55.07;95401.00;5046092;28;20175;-79
2022/01/16 02:11:57;;;;;;;5.30;4.90;;;;;;;2.79;55.65;95408.66;5046026;28;20257;-79
2022/01/16 02:14:33;;;;;;;7.97;7.03;;;;;;;3.42;54.52;95404.19;5046114;28;20402;-79
2022/01/16 02:35:42;;;;;;;10.27;8.50;;;;;;;3.19;56.91;95402.72;5065615;28;20210;-78
2022/01/16 02:38:11;;;;;;;11.55;8.95;;;;;;;3.10;56.97;95397.38;5065686;28;20433;-78
2022/01/16 02:40:40;;;;;;;10.80;7.72;;;;;;;2.83;57.81;95395.34;5038535;28;20247;-79
2022/01/16 02:43:05;;;;;;;10.82;8.40;;;;;;;2.84;57.99;95388.41;5026343;28;20179;-79
2022/01/16 02:45:33;;;;;;;11.17;8.93;;;;;;;2.79;58.49;95381.06;5008046;28;20208;-78
2022/01/16 02:48:08;;;;;;;12.18;9.55;;;;;;;2.80;58.00;95393.03;5026204;28;20180;-79
2022/01/16 02:50:35;;;;;;;7.45;5.72;;;;;;;2.20;61.26;95394.53;5008514;28;20176;-80
2022/01/16 02:53:06;;;;;;;14.48;10.20;;;;;;;1.98;63.06;95391.09;5026438;28;20216;-81
2022/01/16 02:55:32;;;;;;;9.23;7.05;;;;;;;2.38;61.37;95382.69;5028073;28;20182;-79
2022/01/16 02:58:00;;;;;;;11.93;8.97;;;;;;;2.29;62.39;95388.63;5049492;28;20187;-80
2022/01/16 03:00:26;;;;;;;11.20;9.13;;;;;;;2.33;61.92;95385.69;5032591;28;20296;-79
2022/01/16 03:02:52;;;;;;;14.67;9.70;;;;;;;2.45;61.41;95388.19;5031873;28;20213;-79
2022/01/16 03:05:20;;;;;;;14.57;9.00;;;;;;;2.05;63.49;95379.34;5032138;28;20221;-79
2022/01/16 03:07:46;;;;;;;14.63;10.80;;;;;;;2.42;62.39;95389.25;5049633;28;20206;-79
2022/01/16 03:12:40;;;;;;;13.63;9.32;;;;;;;2.52;61.60;95377.25;5049893;28;20206;-78
2022/01/16 03:15:07;;;;;;;11.27;8.43;;;;;;;2.71;60.77;95376.53;5031672;28;20175;-79
2022/01/16 03:17:40;;;;;;;14.10;10.30;;;;;;;2.80;60.02;95374.94;5050523;28;20213;-79
2022/01/16 03:22:51;;;;;;;14.38;11.50;;;;;;;2.76;60.70;95380.50;5049446;28;20661;-78
2022/01/16 03:25:16;;;;;;;13.73;10.67;;;;;;;3.08;60.09;95383.78;5049138;28;20199;-78
2022/01/16 03:27:42;;;;;;;17.13;11.00;;;;;;;3.00;59.95;95383.59;5032113;28;20196;-78
2022/01/16 03:30:12;;;;;;;16.17;12.47;;;;;;;3.00;60.20;95382.75;5011808;28;20195;-77
2022/01/16 03:32:37;;;;;;;11.95;9.90;;;;;;;2.93;60.19;95377.31;5028306;28;20485;-78
2022/01/16 03:35:03;;;;;;;10.00;8.90;;;;;;;2.78;59.54;95384.56;5031115;28;20191;-77
2022/01/16 03:37:28;;;;;;;11.90;9.13;;;;;;;2.60;60.40;95388.69;5049106;28;20186;-77
2022/01/16 03:39:54;;;;;;;14.87;8.87;;;;;;;2.77;59.75;95393.28;5044417;28;20200;-78
2022/01/16 03:42:25;;;;;;;7.83;6.80;;;;;;;2.43;60.45;95401.22;5030309;28;20263;-78
2022/01/16 03:44:51;;;;;;;14.23;9.45;;;;;;;2.83;59.52;95403.13;5049113;28;20199;-79
2022/01/16 03:47:16;;;;;;;14.60;11.43;;;;;;;2.62;60.62;95412.63;5021010;28;20196;-78
2022/01/16 03:49:42;;;;;;;13.10;11.10;;;;;;;2.92;58.77;95404.94;5011503;28;20188;-78
2022/01/16 03:52:07;;;;;;;13.30;9.83;;;;;;;3.29;58.32;95408.75;5028754;28;20191;-79
2022/01/16 03:54:33;;;;;;;12.90;10.40;;;;;;;2.90;60.17;95406.00;5030285;28;20528;-78
2022/01/16 03:56:59;;;;;;;13.57;10.27;;;;;;;2.88;59.70;95400.97;5011278;28;20203;-78
2022/01/16 03:59:25;;;;;;;10.75;7.68;;;;;;;2.70;60.15;95405.88;5035712;28;20968;-78
2022/01/16 04:01:51;;;;;;;15.00;11.87;;;;;;;3.10;59.50;95401.75;5049257;28;20241;-78
2022/01/16 04:04:16;;;;;;;14.65;10.05;;;;;;;2.98;59.54;95400.19;5030754;28;20222;-78
2022/01/16 04:06:42;;;;;;;8.97;7.30;;;;;;;2.59;60.90;95399.97;5025592;28;20191;-79
2022/01/16 04:09:07;;;;;;;10.87;9.10;;;;;;;2.59;60.33;95398.19;5030643;28;20188;-79
2022/01/16 04:11:33;;;;;;;16.80;11.33;;;;;;;2.51;60.80;95411.75;5048670;28;20179;-79
2022/01/16 04:14:14;;;;;;;11.70;10.50;;;;;;;2.70;60.18;95405.88;5033923;28;20214;-78
2022/01/16 04:16:40;;;;;;;13.18;8.95;;;;;;;2.06;62.07;95414.53;5029316;28;20243;-80
2022/01/16 04:19:06;;;;;;;14.30;8.70;;;;;;;2.43;61.13;95411.56;5026948;28;20297;-78
2022/01/16 04:21:32;;;;;;;12.63;10.07;;;;;;;2.41;60.85;95410.88;5052846;28;20179;-78
2022/01/16 04:23:58;;;;;;;13.43;10.80;;;;;;;2.17;61.45;95421.41;5034970;28;20509;-79
2022/01/16 04:26:25;;;;;;;10.00;8.43;;;;;;;2.21;61.18;95422.81;5049925;28;20513;-79
2022/01/16 04:28:52;;;;;;;12.73;9.95;;;;;;;2.21;61.90;95415.06;5048856;28;20413;-80
2022/01/16 04:31:17;;;;;;;15.55;10.93;;;;;;;2.31;60.92;95425.47;5031056;28;20179;-79
2022/01/16 04:33:44;;;;;;;13.57;9.63;;;;;;;2.33;61.05;95427.00;5049886;28;20171;-79
2022/01/16 04:36:10;;;;;;;13.73;9.95;;;;;;;2.75;59.76;95436.50;5048235;28;20186;-78
2022/01/16 04:38:38;;;;;;;15.32;11.20;;;;;;;2.19;61.28;95439.38;5057815;28;20186;-79
2022/01/16 04:43:49;;;;;;;12.23;10.93;;;;;;;2.93;59.42;95427.22;5069256;28;20684;-79
2022/01/16 04:46:15;;;;;;;12.83;10.40;;;;;;;3.05;58.73;95437.50;5043470;28;20175;-79
2022/01/16 04:48:41;;;;;;;13.67;10.87;;;;;;;3.01;58.89;95441.28;5048241;28;20448;-79
2022/01/16 04:51:07;;;;;;;15.17;11.80;;;;;;;2.84;58.98;95438.34;5030844;28;20414;-79
2022/01/16 04:53:32;;;;;;;12.70;9.77;;;;;;;2.62;59.48;95425.53;5030981;28;20187;-79
2022/01/16 04:55:57;;;;;;;13.33;10.83;;;;;;;2.93;59.62;95423.84;5048810;28;20180;-79
2022/01/16 04:58:23;;;;;;;16.93;11.93;;;;;;;2.95;59.12;95421.13;5049328;28;20197;-79
2022/01/16 05:00:49;;;;;;;18.63;10.90;;;;;;;2.93;58.98;95423.84;5031556;28;20183;-79
2022/01/16 05:03:14;;;;;;;17.60;10.70;;;;;;;3.00;59.36;95437.06;5031469;28;20253;-79
2022/01/16 05:05:40;;;;;;;13.53;11.10;;;;;;;3.15;58.34;95433.22;5047942;28;20243;-78
2022/01/16 05:08:05;;;;;;;11.80;10.60;;;;;;;2.71;59.57;95424.78;5047991;28;20277;-78
2022/01/16 05:10:32;;;;;;;10.00;7.57;;;;;;;2.65;59.17;95423.53;5053471;28;20183;-78
2022/01/16 05:13:15;;;;;;;12.85;10.82;;;;;;;3.06;58.08;95421.88;5065061;28;20195;-78
2022/01/16 05:18:25;;;;;;;12.73;10.18;;;;;;;2.77;58.46;95418.28;5028210;28;20223;-78
2022/01/16 05:20:50;;;;;;;15.73;9.10;;;;;;;2.89;57.76;95417.28;5027449;28;20180;-78
2022/01/16 05:23:16;;;;;;;13.63;11.13;;;;;;;3.12;57.69;95417.94;5029937;28;20274;-78
2022/01/16 05:25:41;;;;;;;15.30;11.30;;;;;;;3.02;57.72;95427.44;5012283;28;20210;-79
2022/01/16 05:28:07;;;;;;;11.07;9.80;;;;;;;2.71;57.81;95424.78;5011429;28;20214;-79
2022/01/16 05:30:32;;;;;;;15.70;10.20;;;;;;;2.79;57.24;95427.56;5029090;28;20169;-79
2022/01/16 05:32:58;;;;;;;11.77;8.83;;;;;;;2.58;57.96;95413.81;5034345;28;20274;-78
2022/01/16 05:35:23;;;;;;;9.20;8.03;;;;;;;2.81;57.79;95430.00;5049044;28;20199;-78
2022/01/16 05:37:49;;;;;;;15.37;11.13;;;;;;;2.79;57.65;95422.41;5049102;28;20183;-79
2022/01/16 05:40:14;;;;;;;11.60;9.30;;;;;;;2.86;57.41;95430.47;5031735;28;20179;-79
2022/01/16 05:42:40;;;;;;;15.17;10.70;;;;;;;2.98;56.90;95423.44;5048098;28;20194;-79
2022/01/16 05:45:06;;;;;;;11.77;9.47;;;;;;;3.02;56.16;95427.44;5048178;28;20277;-79
2022/01/16 05:47:31;;;;;;;14.15;10.57;;;;;;;2.57;57.27;95443.19;5030574;28;20186;-79
2022/01/16 05:49:57;;;;;;;16.37;12.07;;;;;;;2.34;58.40;95441.53;5048152;28;20168;-79
2022/01/16 05:52:22;;;;;;;13.50;10.37;;;;;;;2.34;58.87;95438.13;5030066;28;20188;-79
2022/01/16 05:54:47;;;;;;;18.10;11.60;;;;;;;2.49;56.95;95434.31;5047605;28;20565;-78
2022/01/16 05:57:13;;;;;;;17.40;10.30;;;;;;;2.52;56.45;95444.41;5047833;28;20191;-78
2022/01/16 05:59:39;;;;;;;14.27;9.70;;;;;;;2.36;56.60;95446.56;5030304;28;20183;-79
2022/01/16 06:02:05;;;;;;;13.70;9.07;;;;;;;1.99;56.13;95446.09;5029734;28;20218;-78
2022/01/16 06:04:30;;;;;;;11.10;8.13;;;;;;;2.36;54.99;95444.00;5029513;28;20210;-78
2022/01/16 06:06:56;;;;;;;10.73;7.10;;;;;;;2.58;54.43;95448.25;5029354;28;20426;-79
2022/01/16 06:09:21;;;;;;;8.60;7.27;;;;;;;3.02;53.19;95442.94;5046771;28;20171;-77
2022/01/16 06:11:47;;;;;;;10.53;7.23;;;;;;;2.92;52.81;95443.72;5029032;28;20195;-77
2022/01/16 06:14:12;;;;;;;11.03;8.00;;;;;;;3.05;52.44;95437.50;5031316;28;20250;-79
2022/01/16 06:16:38;;;;;;;9.70;8.07;;;;;;;3.26;52.55;95450.41;5038108;28;20721;-79
2022/01/16 06:19:04;;;;;;;15.43;7.93;;;;;;;3.29;51.85;95450.97;5066972;28;20195;-79
2022/01/16 06:21:29;;;;;;;10.93;8.43;;;;;;;3.09;52.25;95454.38;5047946;28;20214;-79
2022/01/16 06:23:55;;;;;;;10.07;8.70;;;;;;;2.97;53.07;95450.25;5047856;28;20218;-79
2022/01/16 06:26:20;;;;;;;8.53;7.67;;;;;;;3.32;52.13;95448.13;5010665;28;20179;-80
2022/01/16 06:28:45;;;;;;;14.40;9.63;;;;;;;3.18;52.36;95453.63;5028446;28;20247;-78
2022/01/16 06:31:11;;;;;;;12.87;9.27;;;;;;;3.33;51.80;95461.88;5027901;28;20187;-79
2022/01/16 06:33:36;;;;;;;14.90;8.40;;;;;;;3.14;52.09;95465.19;5028057;28;20250;-79
2022/01/16 06:36:02;;;;;;;12.03;8.40;;;;;;;3.14;52.19;95462.59;5028455;28;20191;-79
2022/01/16 06:38:28;;;;;;;11.53;7.93;;;;;;;3.24;51.82;95468.63;5045987;28;20184;-79
2022/01/16 06:40:53;;;;;;;11.23;8.80;;;;;;;3.13;51.49;95476.47;5045509;28;20402;-79
2022/01/16 06:43:19;;;;;;;12.03;9.13;;;;;;;2.96;52.10;95484.78;5045807;28;20175;-80
2022/01/16 06:45:44;;;;;;;8.77;6.73;;;;;;;2.78;52.09;95482.78;5028231;28;20539;-79
2022/01/16 06:48:25;;;;;;;14.50;8.07;;;;;;;2.67;53.17;95475.09;5028444;28;20187;-80
2022/01/16 06:50:54;;;;;;;11.48;8.68;;;;;;;2.96;51.95;95469.28;5028081;28;20171;-79
2022/01/16 06:53:19;;;;;;;12.23;9.25;;;;;;;2.86;51.64;95475.22;5046241;28;20666;-80
2022/01/16 06:55:45;;;;;;;12.77;9.93;;;;;;;2.99;51.90;95469.03;5027868;28;20186;-80
2022/01/16 06:58:10;;;;;;;13.23;10.57;;;;;;;2.79;53.21;95476.69;5046270;28;20203;-79
2022/01/16 07:00:36;;;;;;;12.17;9.47;;;;;;;2.78;52.49;95482.78;5027935;28;20195;-80
2022/01/16 07:03:01;;;;;;;12.17;9.87;;;;;;;3.18;52.65;95486.44;5027986;28;20179;-79
2022/01/16 07:05:27;;;;;;;17.00;10.67;;;;;;;2.99;52.61;95489.72;5045290;28;20555;-79
2022/01/16 07:07:52;;;;;;;11.73;10.07;;;;;;;3.25;52.19;95500.50;5045454;28;20207;-78
2022/01/16 07:10:18;;;;;;;14.00;9.07;;;;;;;3.00;52.18;95499.94;5027373;28;20186;-79
2022/01/16 07:12:44;;;;;;;11.60;9.40;;;;;;;3.16;52.26;95502.06;5027716;28;20250;-78
2022/01/16 07:15:10;;;;;;;20.90;11.80;;;;;;;3.38;52.53;95511.47;5045224;28;20413;-78
2022/01/16 07:17:36;;;;;;;17.45;12.30;;;;;;;3.42;52.21;95504.25;5045381;28;20175;-78
2022/01/16 07:20:02;;;;;;;10.83;9.80;;;;;;;2.95;53.06;95496.09;5045251;28;20210;-78
2022/01/16 07:22:28;;;;;;;15.73;11.77;;;;;;;3.07;53.11;95497.66;5045571;28;20716;-79
2022/01/16 07:24:53;;;;;;;15.37;11.07;;;;;;;3.34;52.50;95504.91;5045519;28;20458;-79
2022/01/16 07:27:20;;;;;;;14.63;11.80;;;;;;;3.61;51.90;95501.75;5045425;28;20178;-80
2022/01/16 07:29:45;;;;;;;13.57;9.77;;;;;;;3.26;52.67;95499.53;5045551;28;20175;-80
2022/01/16 07:32:11;;;;;;;18.77;12.20;;;;;;;3.61;52.19;95501.75;5045446;28;20752;-79
2022/01/16 07:34:36;;;;;;;14.30;10.73;;;;;;;3.48;52.62;95507.13;5027602;28;20172;-79
2022/01/16 07:37:02;;;;;;;13.97;10.00;;;;;;;3.61;52.28;95506.94;5045403;28;20196;-79
2022/01/16 07:39:27;;;;;;;14.13;10.40;;;;;;;3.29;53.18;95507.88;5027762;28;20186;-79
2022/01/16 07:41:53;;;;;;;13.03;10.33;;;;;;;3.50;52.77;95518.19;5045302;28;20233;-79
2022/01/16 07:44:18;;;;;;;14.67;10.47;;;;;;;3.50;53.19;95514.78;5030641;28;20200;-79
2022/01/16 07:46:44;;;;;;;17.63;12.67;;;;;;;3.32;53.21;95517.97;5031155;28;20179;-78
2022/01/16 07:49:09;;;;;;;5.83;5.23;;;;;;;3.60;52.98;95518.22;5049046;28;20175;-78
2022/01/16 07:51:35;;;;;;;14.03;11.33;;;;;;;3.64;52.77;95517.03;5049034;28;20175;-79
2022/01/16 07:54:00;;;;;;;19.20;11.70;;;;;;;3.99;52.58;95520.16;5048666;28;20183;-79
2022/01/16 07:56:26;;;;;;;14.80;11.10;;;;;;;3.83;52.78;95528.41;5049029;28;20194;-79
2022/01/16 07:58:52;;;;;;;16.57;11.67;;;;;;;3.98;52.73;95523.69;5030854;28;20179;-79
2022/01/16 08:01:17;;;;;;;18.90;11.20;;;;;;;4.12;53.12;95528.50;5048676;28;20179;-79
2022/01/16 08:03:42;;;;;;;14.37;10.33;;;;;;;4.14;53.37;95533.56;5030493;28;20245;-79
2022/01/16 08:06:10;;;;;;;10.80;8.73;;;;;;;3.75;54.88;95529.06;5030973;28;20214;-79
2022/01/16 08:08:37;;;;;;;10.33;8.20;;;;;;;3.63;54.99;95520.56;5048646;28;20172;-79
2022/01/16 08:11:03;;;;;;;10.90;8.37;;;;;;;3.80;55.13;95520.91;5030766;28;20923;-79
2022/01/16 08:13:28;;;;;;;14.50;8.27;;;;;;;4.06;53.54;95521.25;5048262;28;20520;-79
2022/01/16 08:15:53;;;;;;;10.73;8.80;;;;;;;4.60;53.07;95521.75;5030210;28;20203;-79
2022/01/16 08:18:19;;;;;;;11.67;9.70;;;;;;;4.15;54.09;95528.22;5030331;28;20252;-79
2022/01/16 08:20:44;;;;;;;13.67;10.03;;;;;;;3.86;54.81;95528.16;5030121;28;20214;-79
2022/01/16 08:23:10;;;;;;;9.33;7.30;;;;;;;3.34;55.66;95530.78;5030245;28;20566;-78
2022/01/16 08:25:36;;;;;;;11.17;8.13;;;;;;;4.00;54.64;95526.97;5055171;28;20564;-79
2022/01/16 08:28:01;;;;;;;13.47;10.63;;;;;;;4.47;53.53;95515.06;5067740;28;20185;-80
2022/01/16 08:30:26;;;;;;;10.27;8.10;;;;;;;4.48;52.79;95506.34;5067401;28;20182;-79
2022/01/16 08:32:52;;;;;;;8.30;7.43;;;;;;;3.49;55.39;95513.97;5049279;28;20241;-79
2022/01/16 08:35:18;;;;;;;13.13;9.70;;;;;;;4.12;54.25;95523.31;5067793;28;20179;-80
2022/01/16 08:37:44;;;;;;;10.50;8.70;;;;;;;4.73;52.40;95514.53;5067617;28;20190;-80
2022/01/16 08:40:10;;;;;;;10.47;8.13;;;;;;;4.95;51.74;95512.59;5049608;28;20419;-78
2022/01/16 08:42:37;;;;;;;15.90;11.47;;;;;;;3.95;55.49;95519.59;5067310;28;20194;-78
2022/01/16 08:45:03;;;;;;;14.10;11.40;;;;;;;4.25;54.32;95510.94;5067738;28;20453;-79
2022/01/16 08:47:30;;;;;;;13.53;9.87;;;;;;;3.79;54.51;95508.91;5049859;28;20436;-78
2022/01/16 08:49:58;;;;;;;12.00;9.67;;;;;;;4.63;53.29;95516.28;5049564;28;20428;-78
2022/01/16 08:52:25;;;;;;;13.20;10.60;;;;;;;4.52;53.36;95506.88;5067322;28;20520;-78
2022/01/16 08:54:50;;;;;;;9.97;8.63;;;;;;;4.69;53.08;95502.81;5066296;28;20409;-78
2022/01/16 08:57:16;;;;;;;14.00;10.20;;;;;;;4.57;53.60;95501.28;5067631;28;20512;-79
2022/01/16 08:59:41;;;;;;;10.30;9.20;;;;;;;4.09;55.11;95501.09;5067476;28;20241;-78
2022/01/16 09:02:07;;;;;;;12.13;9.83;;;;;;;3.98;54.87;95502.97;5049507;28;20205;-79
2022/01/16 09:04:33;;;;;;;15.00;10.40;;;;;;;4.90;52.82;95494.88;5067706;28;20202;-79
2022/01/16 09:06:58;;;;;;;14.30;11.83;;;;;;;4.76;52.55;95497.88;5049043;28;20545;-79
2022/01/16 09:09:24;;;;;;;14.93;13.40;;;;;;;4.87;52.40;95493.34;5053516;28;20176;-79
2022/01/16 09:11:49;;;;;;;20.90;13.47;;;;;;;4.86;52.88;95499.50;5029531;28;20184;-78
2022/01/16 09:14:15;;;;;;;16.27;12.37;;;;;;;4.38;54.16;95497.75;5047123;28;20685;-78
2022/01/16 09:16:41;;;;;;;18.20;13.90;;;;;;;3.87;55.55;95496.94;5047317;28;20183;-78
2022/01/16 09:19:07;;;;;;;15.90;13.40;;;;;;;4.86;53.25;95489.16;5046664;28;20175;-79
2022/01/16 09:21:34;;;;;;;15.90;13.37;;;;;;;5.48;51.70;95484.38;5028861;28;20222;-80
2022/01/16 09:23:59;;;;;;;16.90;13.13;;;;;;;5.31;52.20;95482.50;5046769;28;20445;-79
2022/01/16 09:26:26;;;;;;;15.97;13.10;;;;;;;5.44;52.00;95474.41;5047135;28;20436;-79
2022/01/16 09:28:52;;;;;;;11.00;9.10;;;;;;;5.84;50.15;95468.09;5046579;28;20685;-79
2022/01/16 09:31:18;;;;;;;20.00;13.67;;;;;;;6.31;50.17;95469.78;5060394;28;20453;-78
2022/01/16 09:33:43;;;;;;;20.53;14.60;;;;;;;6.98;47.48;95467.59;5047666;28;20444;-78
2022/01/16 09:36:09;;;;;;;14.13;12.57;;;;;;;6.68;50.06;95464.44;5046323;28;20210;-79
2022/01/16 09:38:36;;;;;;;16.80;13.30;;;;;;;6.41;48.53;95465.31;5046459;28;20198;-78
2022/01/16 09:41:04;;;;;;;19.30;12.03;;;;;;;6.13;49.25;95462.78;5046658;28;20228;-78
2022/01/16 09:43:32;;;;;;;10.60;9.23;;;;;;;6.83;46.65;95455.13;5046497;28;20410;-79
2022/01/16 09:45:58;;;;;;;16.70;9.40;;;;;;;7.07;47.42;95460.66;5028598;28;20450;-80
2022/01/16 09:48:24;;;;;;;14.77;12.60;;;;;;;7.36;46.77;95449.94;5028771;28;20561;-80
2022/01/16 09:50:50;;;;;;;15.67;12.70;;;;;;;7.31;46.26;95452.22;5046540;28;20916;-79
2022/01/16 09:53:15;;;;;;;14.27;12.83;;;;;;;7.44;46.44;95450.00;5028597;28;20434;-79
2022/01/16 09:55:41;;;;;;;12.80;11.50;;;;;;;7.13;46.08;95439.22;5055964;28;20174;-79
2022/01/16 09:58:07;;;;;;;11.80;9.93;;;;;;;7.70;45.65;95438.72;5048284;28;20193;-79
2022/01/16 10:00:33;;;;;;;13.80;12.30;;;;;;;8.23;44.58;95434.97;5035608;28;20422;-78
2022/01/16 10:03:35;;;;;;;14.73;11.40;;;;;;;8.46;43.75;95434.38;5046578;28;20206;-79
2022/01/16 10:06:21;;;;;;;14.53;12.80;;;;;;;9.01;43.36;95425.94;5029135;28;20449;-79
2022/01/16 10:08:49;;;;;;;15.40;12.87;;;;;;;8.26;44.21;95424.22;5028333;28;20402;-79
2022/01/16 10:11:55;;;;;;;17.00;13.17;;;;;;;9.20;42.01;95419.53;5047082;28;20414;-80
2022/01/16 10:14:27;;;;;;;15.97;12.53;;;;;;;8.05;43.45;95422.06;5028356;28;20449;-80
2022/01/16 10:16:53;;;;;;;13.13;9.33;;;;;;;8.74;42.40;95414.81;5045941;28;20525;-79
2022/01/16 10:19:25;;;;;;;22.60;12.37;;;;;;;8.96;42.33;95413.34;5028298;28;20438;-79
2022/01/16 10:21:55;;;;;;;12.73;11.33;;;;;;;8.88;42.91;95413.38;5028116;28;20176;-79
2022/01/16 10:24:25;;;;;;;13.57;11.33;;;;;;;8.69;42.15;95406.69;5045871;28;20469;-79
2022/01/16 10:27:11;;;;;;;11.00;8.87;;;;;;;8.26;42.72;95411.19;5045377;28;20533;-78
2022/01/16 10:29:53;;;;;;;15.70;11.80;;;;;;;8.32;44.02;95407.94;5028359;28;20422;-79
2022/01/16 10:32:20;;;;;;;14.90;12.73;;;;;;;9.26;42.21;95403.19;5024532;28;20525;-79
2022/01/16 10:34:49;;;;;;;22.17;13.93;;;;;;;9.71;40.90;95386.06;5011657;28;20920;-79
2022/01/16 10:37:27;;;;;;;18.03;13.53;;;;;;;10.38;39.66;95381.28;5049323;28;20410;-79
2022/01/16 10:40:02;;;;;;;18.03;13.63;;;;;;;10.68;38.39;95372.56;5042658;28;21637;-79
2022/01/16 10:42:30;;;;;;;14.03;12.53;;;;;;;11.03;38.09;95372.06;5019013;28;20419;-80
2022/01/16 11:09:26;;;;;;;19.20;14.40;;;;;;;10.95;37.84;95352.03;5012379;28;20549;-79
2022/01/16 11:11:59;;;;;;;16.37;12.97;;;;;;;11.69;35.94;95346.75;5010335;28;20455;-79
2022/01/16 11:14:29;;;;;;;20.43;14.37;;;;;;;12.15;35.80;95356.16;5008337;28;20470;-79
2022/01/16 11:29:14;;;;;;;18.98;15.32;;;;;;;12.30;35.14;95328.06;5035852;28;20564;-79
2022/01/16 11:44:23;;;;;;;17.48;13.63;;;;;;;11.98;35.18;95312.81;5047512;28;20461;-81
2022/01/16 11:57:55;;;;;;;16.50;14.80;;;;;;;12.36;34.84;95312.56;4936399;29;20400;-79
2022/01/16 12:13:58;;;;;;;21.97;14.47;;;;;;;11.12;35.93;95303.72;5007758;28;20529;-75
2022/01/16 12:16:42;;;;;;;16.57;13.80;;;;;;;12.14;34.77;95299.47;5050570;28;20449;-81
2022/01/16 12:19:36;;;;;;;22.77;14.67;;;;;;;12.61;34.20;95289.34;5051533;28;20421;-81
2022/01/16 12:22:03;;;;;;;16.37;14.60;;;;;;;12.59;34.05;95286.91;5051725;28;20440;-81
2022/01/16 12:24:35;;;;;;;19.57;15.00;;;;;;;12.76;33.06;95284.00;5069143;28;20476;-82
2022/01/16 12:27:44;;;;;;;18.00;16.10;;;;;;;11.92;34.77;95290.75;5069914;28;20924;-81
2022/01/16 12:30:12;;;;;;;20.23;16.20;;;;;;;11.58;35.45;95291.38;4953889;29;20419;-81
2022/01/16 12:32:59;;;;;;;19.63;14.77;;;;;;;11.21;35.87;95293.13;4969363;29;20427;-80
2022/01/16 12:35:50;;;;;;;25.53;16.40;;;;;;;11.68;35.28;95294.50;5016835;28;20919;-80
2022/01/16 12:38:25;;;;;;;22.27;16.30;;;;;;;11.67;35.78;95282.41;5068706;28;20398;-80
2022/01/16 12:41:03;;;;;;;20.20;17.90;;;;;;;11.08;36.27;95294.59;5068265;28;20409;-79
2022/01/16 12:43:33;;;;;;;19.60;15.57;;;;;;;10.96;37.16;95288.16;5050657;28;20527;-80
2022/01/16 12:46:04;;;;;;;28.23;15.20;;;;;;;10.93;36.84;95285.91;5068197;28;20793;-80
2022/01/16 12:48:30;;;;;;;21.80;16.10;;;;;;;10.74;37.30;95282.03;5069477;28;20482;-82
2022/01/16 12:51:08;;;;;;;20.37;16.90;;;;;;;10.07;37.81;95274.88;5051252;28;20421;-81
2022/01/16 12:53:44;;;;;;;23.10;16.30;;;;;;;10.12;37.79;95276.00;5069622;28;20432;-81
2022/01/16 12:56:36;;;;;;;18.90;16.33;;;;;;;10.01;38.71;95259.91;5069781;28;20404;-81
2022/01/16 12:59:11;;;;;;;24.67;17.47;;;;;;;9.81;39.30;95264.78;5051984;28;20410;-81
2022/01/16 13:01:42;;;;;;;21.40;16.50;;;;;;;10.08;38.62;95264.25;5068652;28;20419;-78
2022/01/16 13:04:17;;;;;;;24.30;16.67;;;;;;;10.57;37.80;95259.59;5050551;28;20955;-81
2022/01/16 13:06:42;;;;;;;19.20;16.63;;;;;;;9.90;38.90;95267.19;5068133;28;20451;-80
2022/01/16 13:09:10;;;;;;;19.43;16.30;;;;;;;10.15;37.96;95261.78;5067921;28;20477;-79
2022/01/16 13:11:38;;;;;;;25.77;17.67;;;;;;;9.93;38.96;95266.81;5067644;28;20210;-79
2022/01/16 13:14:06;;;;;;;23.10;17.37;;;;;;;9.81;38.56;95265.59;5049637;28;20533;-80
2022/01/16 13:16:34;;;;;;;23.10;17.10;;;;;;;9.83;39.00;95268.06;5068244;28;20440;-80
2022/01/16 13:19:03;;;;;;;21.87;18.20;;;;;;;9.33;39.91;95268.34;5067339;28;20425;-80
2022/01/16 13:21:38;;;;;;;21.53;17.10;;;;;;;9.25;39.59;95259.72;5067493;28;20412;-80
2022/01/16 13:24:04;;;;;;;22.73;16.10;;;;;;;9.16;40.73;95259.78;5067851;28;20434;-79
2022/01/16 13:26:31;;;;;;;21.53;15.90;;;;;;;9.08;41.07;95254.56;5049645;28;20922;-79
2022/01/16 13:29:02;;;;;;;21.40;17.70;;;;;;;9.09;40.22;95255.41;5067023;28;20452;-80
2022/01/16 13:31:28;;;;;;;21.20;18.50;;;;;;;9.19;40.27;95264.63;5067306;28;20405;-80